Squeak Carpenter — WDA2979 — position and weather

sailwx.info

Track history (hours):
 
Tides and Currents Weather Stations Pressure Air Temp Water Temp Dewpoint Dewpoint Depression Visibility Wind Speed Wind Dir Waves Ship Positions

Squeak Carpenter

Owner: Blessey Enterprises, Inc., HARAHAN, LA. More information available from US FCC via Universal Licensing System and Coast Guard Vessel Documentation Center.

Last reported at 2017-Oct-20 10:35 UTC. Time now 2017-Oct-20 17:48 UTC.
Position N 29°32' W 094°54'.

Length 15 m.

Type: Towing. MMSI: 366793340.

Date/timePositionNaut miles runAvg speedWind from/ knotsBaromVisibWave heightAir tempDewpointWater temp
2017-Oct-20 10:35N 29°32' W 094°54'1 5.9
2017-Oct-20 10:30N 29°32' W 094°54'3 6.1
2017-Oct-20 10:00N 29°35' W 094°56'3 5.9
2017-Oct-20 09:30N 29°37' W 094°58'3 6.0
2017-Oct-20 09:00N 29°40' W 094°59'3 5.8
2017-Oct-20 08:30N 29°42' W 095°01'5 1.5
2017-Oct-20 05:11N 29°46' W 095°05'1 3.0
2017-Oct-20 04:52N 29°45' W 095°04'1 3.6
2017-Oct-20 04:28N 29°44' W 095°03'2 2.9
2017-Oct-20 03:49N 29°43' W 095°01'1 3.0
2017-Oct-20 03:30N 29°42' W 095°01'2 3.1
2017-Oct-20 03:00N 29°42' W 094°59'2 3.4
2017-Oct-20 02:30N 29°40' W 094°59'2 3.4
2017-Oct-20 02:00N 29°38' W 094°58'2 3.1
2017-Oct-20 01:30N 29°37' W 094°58'2 3.6
2017-Oct-20 01:00N 29°37' W 094°60'1 2.6
2017-Oct-20 00:30N 29°37' W 095°01'0 0.3
2017-Oct-20 00:00N 29°37' W 095°02'0 0.0
2017-Oct-19 23:30N 29°37' W 095°02'0 0.0
2017-Oct-19 23:00N 29°37' W 095°02'0 0.0
2017-Oct-19 22:30N 29°37' W 095°02'0 0.0
2017-Oct-19 22:00N 29°37' W 095°02'0 0.0
2017-Oct-19 21:30N 29°37' W 095°02'0 0.0
2017-Oct-19 21:00N 29°37' W 095°02'0 0.0
2017-Oct-19 20:30N 29°37' W 095°02'0 0.0
2017-Oct-19 20:00N 29°37' W 095°02'0 0.0
2017-Oct-19 19:30N 29°37' W 095°02'0 0.0
2017-Oct-19 19:00N 29°37' W 095°02'0 0.0
2017-Oct-19 18:30N 29°37' W 095°02'0 0.0
2017-Oct-19 18:00N 29°37' W 095°02'0 0.0
2017-Oct-19 17:30N 29°37' W 095°02'0 0.0
2017-Oct-19 17:00N 29°37' W 095°02'0 0.0
2017-Oct-19 16:30N 29°37' W 095°02'0 0.0
2017-Oct-19 16:00N 29°37' W 095°02'0 0.0
2017-Oct-19 15:30N 29°37' W 095°02'0 0.0
2017-Oct-19 15:00N 29°37' W 095°02'0 0.0
2017-Oct-19 14:30N 29°37' W 095°02'0 0.0
2017-Oct-19 14:00N 29°37' W 095°02'0 0.0
2017-Oct-19 13:30N 29°37' W 095°02'0 0.0
2017-Oct-19 13:00N 29°37' W 095°02'0 0.0
2017-Oct-19 12:30N 29°37' W 095°02'0 0.0
2017-Oct-19 12:00N 29°37' W 095°02'0 0.0
2017-Oct-19 11:30N 29°37' W 095°02'0 0.0
2017-Oct-19 11:00N 29°37' W 095°02'0 0.0
2017-Oct-19 10:30N 29°37' W 095°02'0 0.0
2017-Oct-19 10:00N 29°37' W 095°02'0 0.0
2017-Oct-19 09:30N 29°37' W 095°02'0 0.0
2017-Oct-19 09:00N 29°37' W 095°02'0 0.0
2017-Oct-19 08:30N 29°37' W 095°02'0 0.0
2017-Oct-19 08:00N 29°37' W 095°02'0 0.0
2017-Oct-19 07:30N 29°37' W 095°02'0 0.0
2017-Oct-19 07:00N 29°37' W 095°02'0 0.0
2017-Oct-19 06:30N 29°37' W 095°02'0 0.0
2017-Oct-19 06:00N 29°37' W 095°02'0 0.0
2017-Oct-19 05:30N 29°37' W 095°02'0 0.0
2017-Oct-19 05:00N 29°37' W 095°02'0 0.0
2017-Oct-19 04:30N 29°37' W 095°02'0 0.0
2017-Oct-19 04:00N 29°37' W 095°02'0 0.0
2017-Oct-19 03:30N 29°37' W 095°02'0 0.1
2017-Oct-19 03:00N 29°37' W 095°01'0 0.3
2017-Oct-19 02:30N 29°37' W 095°01'2 4.8
2017-Oct-19 02:00N 29°37' W 094°59'2 3.3
2017-Oct-19 01:30N 29°38' W 094°58'2 4.8
2017-Oct-19 01:00N 29°41' W 094°59'3 4.9
2017-Oct-19 00:29N 29°42' W 095°01'6 0.5
2017-Oct-18 12:04N 29°47' W 095°05'0 0.0
2017-Oct-18 11:45N 29°47' W 095°05'0 0.0
2017-Oct-18 11:12N 29°47' W 095°05'0 0.0
2017-Oct-18 04:57N 29°47' W 095°05'1 2.3
2017-Oct-18 04:22N 29°46' W 095°05'2 4.2
2017-Oct-18 04:00N 29°45' W 095°04'2 4.2
2017-Oct-18 03:30N 29°44' W 095°02'2 4.5
2017-Oct-18 03:00N 29°42' W 095°00'3 5.4
2017-Oct-18 02:30N 29°40' W 094°58'3 5.9
2017-Oct-18 02:00N 29°37' W 094°57'3 5.9
2017-Oct-18 01:30N 29°34' W 094°55'3 6.1
2017-Oct-18 01:00N 29°32' W 094°54'  
2017-Oct-13 09:40N 29°30' W 094°52'1 6.2
2017-Oct-13 09:26N 29°31' W 094°53'3 6.1
2017-Oct-13 09:00N 29°33' W 094°55'3 6.3
2017-Oct-13 08:30N 29°36' W 094°57'3 6.3
2017-Oct-13 08:00N 29°39' W 094°58'3 6.2
2017-Oct-13 07:30N 29°42' W 094°60'2 3.8
2017-Oct-13 06:54N 29°44' W 095°01'5 0.3
2017-Oct-12 14:22N 29°44' W 095°07'4 0.3
2017-Oct-12 01:47N 29°47' W 095°05'  
Track history (hours):
 
Tides and Currents Weather Stations Pressure Air Temp Water Temp Dewpoint Dewpoint Depression Visibility Wind Speed Wind Dir Waves Ship Positions

Squeak Carpenter

Owner: Blessey Enterprises, Inc., HARAHAN, LA. More information available from US FCC via Universal Licensing System and Coast Guard Vessel Documentation Center.

Last reported at 2017-Oct-20 10:35 UTC. Time now 2017-Oct-20 17:48 UTC.
Position N 29°32' W 094°54'.

Length 15 m.

Type: Towing. MMSI: 366793340.

Date/timePositionNaut miles runAvg speedWind from/ knotsBaromVisibWave heightAir tempDewpointWater temp
2017-Oct-20 10:35N 29°32' W 094°54'1 5.9
2017-Oct-20 10:30N 29°32' W 094°54'3 6.1
2017-Oct-20 10:00N 29°35' W 094°56'3 5.9
2017-Oct-20 09:30N 29°37' W 094°58'3 6.0
2017-Oct-20 09:00N 29°40' W 094°59'3 5.8
2017-Oct-20 08:30N 29°42' W 095°01'5 1.5
2017-Oct-20 05:11N 29°46' W 095°05'1 3.0
2017-Oct-20 04:52N 29°45' W 095°04'1 3.6
2017-Oct-20 04:28N 29°44' W 095°03'2 2.9
2017-Oct-20 03:49N 29°43' W 095°01'1 3.0
2017-Oct-20 03:30N 29°42' W 095°01'2 3.1
2017-Oct-20 03:00N 29°42' W 094°59'2 3.4
2017-Oct-20 02:30N 29°40' W 094°59'2 3.4
2017-Oct-20 02:00N 29°38' W 094°58'2 3.1
2017-Oct-20 01:30N 29°37' W 094°58'2 3.6
2017-Oct-20 01:00N 29°37' W 094°60'1 2.6
2017-Oct-20 00:30N 29°37' W 095°01'0 0.3
2017-Oct-20 00:00N 29°37' W 095°02'0 0.0
2017-Oct-19 23:30N 29°37' W 095°02'0 0.0
2017-Oct-19 23:00N 29°37' W 095°02'0 0.0
2017-Oct-19 22:30N 29°37' W 095°02'0 0.0
2017-Oct-19 22:00N 29°37' W 095°02'0 0.0
2017-Oct-19 21:30N 29°37' W 095°02'0 0.0
2017-Oct-19 21:00N 29°37' W 095°02'0 0.0
2017-Oct-19 20:30N 29°37' W 095°02'0 0.0
2017-Oct-19 20:00N 29°37' W 095°02'0 0.0
2017-Oct-19 19:30N 29°37' W 095°02'0 0.0
2017-Oct-19 19:00N 29°37' W 095°02'0 0.0
2017-Oct-19 18:30N 29°37' W 095°02'0 0.0
2017-Oct-19 18:00N 29°37' W 095°02'0 0.0
2017-Oct-19 17:30N 29°37' W 095°02'0 0.0
2017-Oct-19 17:00N 29°37' W 095°02'0 0.0
2017-Oct-19 16:30N 29°37' W 095°02'0 0.0
2017-Oct-19 16:00N 29°37' W 095°02'0 0.0
2017-Oct-19 15:30N 29°37' W 095°02'0 0.0
2017-Oct-19 15:00N 29°37' W 095°02'0 0.0
2017-Oct-19 14:30N 29°37' W 095°02'0 0.0
2017-Oct-19 14:00N 29°37' W 095°02'0 0.0
2017-Oct-19 13:30N 29°37' W 095°02'0 0.0
2017-Oct-19 13:00N 29°37' W 095°02'0 0.0
2017-Oct-19 12:30N 29°37' W 095°02'0 0.0
2017-Oct-19 12:00N 29°37' W 095°02'0 0.0
2017-Oct-19 11:30N 29°37' W 095°02'0 0.0
2017-Oct-19 11:00N 29°37' W 095°02'0 0.0
2017-Oct-19 10:30N 29°37' W 095°02'0 0.0
2017-Oct-19 10:00N 29°37' W 095°02'0 0.0
2017-Oct-19 09:30N 29°37' W 095°02'0 0.0
2017-Oct-19 09:00N 29°37' W 095°02'0 0.0
2017-Oct-19 08:30N 29°37' W 095°02'0 0.0
2017-Oct-19 08:00N 29°37' W 095°02'0 0.0
2017-Oct-19 07:30N 29°37' W 095°02'0 0.0
2017-Oct-19 07:00N 29°37' W 095°02'0 0.0
2017-Oct-19 06:30N 29°37' W 095°02'0 0.0
2017-Oct-19 06:00N 29°37' W 095°02'0 0.0
2017-Oct-19 05:30N 29°37' W 095°02'0 0.0
2017-Oct-19 05:00N 29°37' W 095°02'0 0.0
2017-Oct-19 04:30N 29°37' W 095°02'0 0.0
2017-Oct-19 04:00N 29°37' W 095°02'0 0.0
2017-Oct-19 03:30N 29°37' W 095°02'0 0.1
2017-Oct-19 03:00N 29°37' W 095°01'0 0.3
2017-Oct-19 02:30N 29°37' W 095°01'2 4.8
2017-Oct-19 02:00N 29°37' W 094°59'2 3.3
2017-Oct-19 01:30N 29°38' W 094°58'2 4.8
2017-Oct-19 01:00N 29°41' W 094°59'3 4.9
2017-Oct-19 00:29N 29°42' W 095°01'6 0.5
2017-Oct-18 12:04N 29°47' W 095°05'0 0.0
2017-Oct-18 11:45N 29°47' W 095°05'0 0.0
2017-Oct-18 11:12N 29°47' W 095°05'0 0.0
2017-Oct-18 04:57N 29°47' W 095°05'1 2.3
2017-Oct-18 04:22N 29°46' W 095°05'2 4.2
2017-Oct-18 04:00N 29°45' W 095°04'2 4.2
2017-Oct-18 03:30N 29°44' W 095°02'2 4.5
2017-Oct-18 03:00N 29°42' W 095°00'3 5.4
2017-Oct-18 02:30N 29°40' W 094°58'3 5.9
2017-Oct-18 02:00N 29°37' W 094°57'3 5.9
2017-Oct-18 01:30N 29°34' W 094°55'3 6.1
2017-Oct-18 01:00N 29°32' W 094°54'  
2017-Oct-13 09:40N 29°30' W 094°52'1 6.2
2017-Oct-13 09:26N 29°31' W 094°53'3 6.1
2017-Oct-13 09:00N 29°33' W 094°55'3 6.3
2017-Oct-13 08:30N 29°36' W 094°57'3 6.3
2017-Oct-13 08:00N 29°39' W 094°58'3 6.2
2017-Oct-13 07:30N 29°42' W 094°60'2 3.8
2017-Oct-13 06:54N 29°44' W 095°01'5 0.3
2017-Oct-12 14:22N 29°44' W 095°07'4 0.3
2017-Oct-12 01:47N 29°47' W 095°05'  

Dump ship's entire track history